Time;durP1;ratioP1;P1;durP2;ratioP2;P2;SDS_P1;SDS_P2;PMS_P1;PMS_P2;Temp;Humidity;BMP_temperature;BMP_pressure;BME280_temperature;BME280_humidity;BME280_pressure;Samples;Min_cycle;Max_cycle;Signal;HPM_P1;HPM_P2
2022/07/28 00:00:41;;;;;;;1.63;0.32;;;18.10;53.40;;;;;;4865634;29;20121;-67
2022/07/28 00:03:08;;;;;;;1.38;0.30;;;18.10;53.40;;;;;;4869249;29;20069;-67
2022/07/28 00:05:42;;;;;;;1.75;0.30;;;18.10;53.50;;;;;;4863082;29;20045;-66
2022/07/28 00:08:10;;;;;;;2.83;0.57;;;18.10;53.50;;;;;;4870649;29;20044;-66
2022/07/28 00:10:38;;;;;;;1.20;0.40;;;18.10;53.60;;;;;;4869002;29;20531;-68
2022/07/28 00:13:06;;;;;;;4.03;0.63;;;18.10;53.60;;;;;;4866713;29;20048;-64
2022/07/28 00:15:33;;;;;;;3.42;0.50;;;18.10;53.60;;;;;;4867601;29;20049;-66
2022/07/28 00:18:00;;;;;;;1.35;0.45;;;18.00;53.60;;;;;;4865414;29;20048;-65
2022/07/28 00:20:29;;;;;;;4.70;0.57;;;18.00;53.70;;;;;;4865936;29;20049;-64
2022/07/28 00:22:56;;;;;;;0.68;0.38;;;17.90;53.80;;;;;;4866290;29;20065;-67
2022/07/28 00:25:24;;;;;;;4.72;0.63;;;17.90;54.00;;;;;;4868080;29;20568;-65
2022/07/28 00:27:51;;;;;;;2.85;0.50;;;17.80;54.20;;;;;;4867707;29;20060;-65
2022/07/28 00:30:19;;;;;;;2.05;0.45;;;17.70;54.40;;;;;;4865253;29;20052;-66
2022/07/28 00:32:46;;;;;;;1.55;0.47;;;17.80;54.50;;;;;;4866933;29;20132;-66
2022/07/28 00:35:13;;;;;;;1.30;0.38;;;17.80;54.20;;;;;;4865587;29;20145;-66
2022/07/28 00:37:41;;;;;;;1.25;0.40;;;17.80;54.30;;;;;;4865050;29;20134;-66
2022/07/28 00:40:08;;;;;;;6.05;0.93;;;17.70;54.20;;;;;;4861178;29;20045;-65
2022/07/28 00:42:36;;;;;;;1.27;0.40;;;17.70;54.10;;;;;;4871531;29;20140;-66
2022/07/28 00:45:03;;;;;;;1.48;0.60;;;17.70;54.30;;;;;;4871679;29;20113;-67
2022/07/28 00:47:31;;;;;;;2.45;0.50;;;17.70;54.30;;;;;;4870132;29;20041;-66
2022/07/28 00:49:58;;;;;;;1.80;0.68;;;17.60;54.40;;;;;;4874273;29;20138;-67
2022/07/28 00:52:27;;;;;;;2.13;0.68;;;17.60;54.40;;;;;;4868539;29;20068;-66
2022/07/28 00:54:54;;;;;;;1.20;0.50;;;17.60;54.40;;;;;;4870085;29;20087;-65
2022/07/28 00:57:21;;;;;;;1.83;0.70;;;17.50;54.60;;;;;;4869107;29;20059;-67
2022/07/28 00:59:49;;;;;;;1.67;0.60;;;17.50;54.70;;;;;;4868206;29;20540;-67
2022/07/28 01:02:16;;;;;;;4.40;1.25;;;17.50;54.60;;;;;;4868392;29;20049;-66
2022/07/28 01:04:44;;;;;;;1.48;0.70;;;17.50;54.60;;;;;;4868960;29;20088;-67
2022/07/28 01:07:23;;;;;;;9.10;0.57;;;17.50;54.50;;;;;;4866516;29;20048;-67
2022/07/28 01:10:03;;;;;;;2.10;0.70;;;17.50;54.60;;;;;;4865307;29;20044;-67
2022/07/28 01:12:45;;;;;;;1.35;0.57;;;17.50;54.70;;;;;;4867318;29;20045;-66
2022/07/28 01:15:22;;;;;;;2.67;0.50;;;17.40;54.70;;;;;;4869106;29;20057;-67
2022/07/28 01:17:54;;;;;;;4.10;0.50;;;17.40;54.90;;;;;;4869188;29;20128;-66
2022/07/28 01:20:30;;;;;;;0.85;0.60;;;17.40;54.80;;;;;;4867979;29;20055;-67
2022/07/28 01:23:09;;;;;;;1.40;0.70;;;17.40;54.30;;;;;;4868731;29;20085;-67
2022/07/28 01:25:46;;;;;;;1.77;0.63;;;17.50;54.10;;;;;;4871233;29;20488;-65
2022/07/28 01:28:25;;;;;;;3.22;0.60;;;17.40;54.40;;;;;;4870565;29;20415;-65
2022/07/28 01:30:57;;;;;;;1.50;0.50;;;17.40;54.40;;;;;;4870887;29;20049;-64
2022/07/28 01:33:31;;;;;;;3.60;0.70;;;17.30;54.70;;;;;;4869178;29;20055;-66
2022/07/28 01:36:02;;;;;;;1.52;0.60;;;17.30;54.90;;;;;;4867460;29;20053;-66
2022/07/28 01:38:33;;;;;;;3.17;0.63;;;17.20;55.00;;;;;;4871825;29;20049;-66
2022/07/28 01:41:02;;;;;;;1.48;0.50;;;17.20;55.10;;;;;;4868911;29;20542;-67
2022/07/28 01:43:33;;;;;;;2.78;0.70;;;17.20;55.40;;;;;;4873871;29;20079;-64
2022/07/28 01:46:03;;;;;;;2.03;0.63;;;17.10;55.30;;;;;;4874914;29;20078;-65
2022/07/28 01:48:33;;;;;;;1.70;0.50;;;17.10;55.30;;;;;;4872482;29;20041;-66
2022/07/28 01:51:01;;;;;;;1.23;0.45;;;17.10;55.40;;;;;;4867109;29;20053;-67
2022/07/28 01:53:31;;;;;;;2.00;0.57;;;17.00;55.60;;;;;;4873063;29;20070;-65
2022/07/28 01:56:01;;;;;;;2.83;0.40;;;17.10;55.60;;;;;;4868207;29;20049;-67
2022/07/28 01:58:29;;;;;;;;;;;17.00;55.80;;;;;;4868001;29;20048;-65
2022/07/28 02:00:57;;;;;;;6.05;0.60;;;17.00;55.90;;;;;;4871328;29;19927;-66
2022/07/28 02:03:31;;;;;;;2.25;0.52;;;17.00;55.90;;;;;;4871587;29;20056;-67
2022/07/28 02:06:01;;;;;;;1.48;0.50;;;17.00;55.90;;;;;;4867992;29;20136;-64
2022/07/28 02:08:31;;;;;;;3.15;0.93;;;17.10;56.10;;;;;;4872795;29;20118;-66
2022/07/28 02:13:46;;;;;;;2.00;0.50;;;16.90;56.40;;;;;;4874163;29;20050;-66
2022/07/28 02:16:14;;;;;;;4.28;0.55;;;16.90;56.40;;;;;;4873564;29;20045;-68
2022/07/28 02:18:45;;;;;;;1.20;0.70;;;16.90;56.40;;;;;;4875988;29;20594;-67
2022/07/28 02:21:13;;;;;;;1.80;0.60;;;16.90;56.50;;;;;;4871932;29;20041;-66
2022/07/28 02:23:43;;;;;;;0.80;0.40;;;16.90;56.60;;;;;;4869622;29;20060;-67
2022/07/28 02:26:12;;;;;;;1.15;0.43;;;16.90;56.60;;;;;;4870362;29;20502;-64
2022/07/28 02:28:42;;;;;;;3.28;1.00;;;16.80;56.90;;;;;;4867288;29;20128;-65
2022/07/28 02:31:17;;;;;;;1.88;0.50;;;16.70;57.00;;;;;;4870014;29;20049;-66
2022/07/28 02:33:47;;;;;;;3.38;0.82;;;16.60;57.20;;;;;;4870179;29;20131;-66
2022/07/28 02:36:24;;;;;;;0.63;0.40;;;16.70;57.20;;;;;;4868500;29;20656;-66
2022/07/28 02:38:53;;;;;;;1.63;0.80;;;16.60;57.40;;;;;;4870366;29;20140;-65
2022/07/28 02:41:24;;;;;;;1.03;0.47;;;16.60;57.60;;;;;;4867115;29;20044;-67
2022/07/28 02:43:56;;;;;;;2.40;0.85;;;16.50;57.80;;;;;;4870284;29;20486;-65
2022/07/28 02:46:25;;;;;;;6.57;0.57;;;16.50;58.10;;;;;;4867970;29;20100;-64
2022/07/28 02:49:05;;;;;;;2.25;0.40;;;16.50;58.10;;;;;;4870577;29;20140;-66
2022/07/28 02:51:34;;;;;;;3.83;0.70;;;16.50;58.00;;;;;;4873446;29;20045;-66
2022/07/28 02:54:02;;;;;;;1.33;0.50;;;16.50;58.20;;;;;;4873105;29;20463;-65
2022/07/28 02:56:30;;;;;;;1.05;0.47;;;16.40;58.20;;;;;;4872645;29;20129;-66
2022/07/28 02:58:59;;;;;;;3.53;0.68;;;16.40;58.40;;;;;;4871007;29;20068;-66
2022/07/28 03:01:27;;;;;;;1.35;0.50;;;16.40;58.50;;;;;;4877686;29;20080;-66
2022/07/28 03:03:55;;;;;;;1.95;0.70;;;16.30;58.60;;;;;;4871534;29;20059;-66
2022/07/28 03:06:23;;;;;;;2.33;0.88;;;16.30;58.70;;;;;;4869559;29;20037;-66
2022/07/28 03:08:50;;;;;;;3.60;0.60;;;16.30;58.60;;;;;;4869056;29;20060;-66
2022/07/28 03:11:17;;;;;;;1.80;0.73;;;16.40;58.60;;;;;;4869010;29;20424;-67
2022/07/28 03:13:44;;;;;;;1.98;0.52;;;16.30;58.70;;;;;;4871094;29;21245;-64
2022/07/28 03:16:12;;;;;;;3.33;0.77;;;16.30;58.70;;;;;;4862816;29;20045;-66
2022/07/28 03:18:40;;;;;;;2.95;0.70;;;16.30;58.60;;;;;;4871540;29;20127;-64
2022/07/28 03:21:08;;;;;;;2.83;0.52;;;16.30;58.70;;;;;;4869839;29;20056;-64
2022/07/28 03:23:40;;;;;;;3.63;0.90;;;16.30;58.60;;;;;;4863865;29;20059;-66
2022/07/28 03:26:13;;;;;;;4.97;0.70;;;16.30;58.60;;;;;;4868057;29;20148;-65
2022/07/28 03:28:42;;;;;;;4.03;0.82;;;16.30;58.70;;;;;;4865912;29;20540;-64
2022/07/28 03:31:12;;;;;;;5.00;0.93;;;16.30;58.70;;;;;;4866274;29;20149;-64
2022/07/28 03:33:38;;;;;;;;;;;16.30;58.70;;;;;;4869821;29;20521;-66
2022/07/28 03:36:12;;;;;;;0.70;0.40;;;16.30;58.80;;;;;;4864745;29;19923;-66
2022/07/28 03:38:43;;;;;;;4.20;0.68;;;16.40;58.70;;;;;;4869649;29;20051;-67
2022/07/28 03:41:11;;;;;;;1.23;0.40;;;16.30;58.30;;;;;;4869041;29;20547;-67
2022/07/28 03:43:39;;;;;;;3.90;0.70;;;16.30;58.10;;;;;;4868929;29;20045;-65
2022/07/28 03:46:07;;;;;;;1.77;0.77;;;16.30;57.80;;;;;;4869208;29;20044;-67
2022/07/28 03:48:35;;;;;;;1.40;0.50;;;16.40;57.70;;;;;;4868373;29;20048;-67
2022/07/28 03:51:02;;;;;;;1.75;0.70;;;16.30;57.90;;;;;;4864822;29;20097;-66
2022/07/28 03:53:30;;;;;;;1.02;0.45;;;16.30;57.90;;;;;;4866842;29;20500;-64
2022/07/28 03:55:58;;;;;;;1.55;0.50;;;16.30;57.80;;;;;;4865166;29;20395;-65
2022/07/28 03:58:27;;;;;;;1.85;0.47;;;16.30;57.60;;;;;;4866959;29;20049;-63
2022/07/28 04:00:54;;;;;;;2.25;0.50;;;16.30;57.40;;;;;;4869180;29;20041;-66
2022/07/28 04:03:22;;;;;;;3.25;1.10;;;16.30;57.20;;;;;;4870136;29;20045;-67
2022/07/28 04:05:49;;;;;;;10.35;1.05;;;16.40;57.00;;;;;;4863431;29;20571;-66
2022/07/28 04:08:16;;;;;;;2.42;0.65;;;16.40;57.00;;;;;;4869370;29;20147;-65
2022/07/28 04:10:45;;;;;;;2.13;0.50;;;16.40;57.10;;;;;;4870861;29;20396;-67
2022/07/28 04:13:11;;;;;;;1.90;0.73;;;16.40;57.50;;;;;;4866492;29;20049;-66
2022/07/28 04:15:39;;;;;;;2.10;0.40;;;16.40;57.60;;;;;;4871215;29;20041;-65
2022/07/28 04:18:06;;;;;;;1.42;0.70;;;16.40;57.70;;;;;;4869326;29;20045;-66
2022/07/28 04:20:34;;;;;;;3.05;0.60;;;16.30;58.00;;;;;;4864968;29;21570;-66
2022/07/28 04:23:01;;;;;;;2.67;0.73;;;16.30;58.00;;;;;;4868543;29;20048;-65
2022/07/28 04:25:28;;;;;;;4.03;0.70;;;16.40;57.90;;;;;;4869514;29;20056;-65
2022/07/28 04:27:56;;;;;;;1.30;0.50;;;16.40;57.90;;;;;;4868089;29;20045;-66
2022/07/28 04:30:26;;;;;;;3.22;0.57;;;16.40;58.10;;;;;;4863642;29;20084;-65
2022/07/28 04:32:55;;;;;;;5.85;0.70;;;16.40;58.30;;;;;;4860849;29;20408;-64
2022/07/28 04:35:24;;;;;;;3.53;0.82;;;16.40;58.30;;;;;;4868441;29;20084;-65
2022/07/28 04:37:54;;;;;;;2.05;0.47;;;16.40;58.50;;;;;;4866998;29;20049;-66
2022/07/28 04:40:21;;;;;;;2.17;0.55;;;16.40;58.50;;;;;;4867517;29;20053;-66
2022/07/28 04:42:49;;;;;;;4.68;0.73;;;16.50;58.50;;;;;;4867795;29;20464;-65
2022/07/28 04:45:17;;;;;;;1.73;0.57;;;16.50;58.10;;;;;;4868179;29;20097;-65
2022/07/28 04:47:44;;;;;;;1.70;0.60;;;16.60;57.90;;;;;;4862097;29;20076;-66
2022/07/28 04:50:14;;;;;;;1.52;0.50;;;16.60;57.70;;;;;;4872567;29;20053;-65
2022/07/28 04:52:41;;;;;;;;;;;16.60;57.40;;;;;;4871827;29;20081;-65
2022/07/28 04:55:09;;;;;;;1.30;0.63;;;16.70;57.10;;;;;;4869613;29;19928;-67
2022/07/28 04:57:36;;;;;;;6.15;0.80;;;16.70;57.10;;;;;;4872931;29;20044;-65
2022/07/28 05:00:11;;;;;;;1.83;0.40;;;16.80;56.90;;;;;;4874745;29;20049;-65
2022/07/28 05:02:40;;;;;;;3.58;0.82;;;16.80;56.80;;;;;;4876394;29;20139;-66
2022/07/28 05:05:08;;;;;;;1.08;0.40;;;16.80;56.70;;;;;;4874439;29;20053;-65
2022/07/28 05:07:35;;;;;;;2.53;0.60;;;16.90;56.40;;;;;;4870179;29;20577;-64
2022/07/28 05:10:03;;;;;;;2.08;0.70;;;16.90;56.40;;;;;;4871029;29;20050;-65
2022/07/28 05:12:30;;;;;;;2.50;0.43;;;16.90;56.40;;;;;;4869896;29;20131;-67
2022/07/28 05:14:58;;;;;;;1.70;0.82;;;16.90;56.50;;;;;;4871411;29;20049;-66
2022/07/28 05:17:25;;;;;;;1.88;0.40;;;16.90;56.30;;;;;;4873068;29;20400;-66
2022/07/28 05:19:54;;;;;;;2.55;0.50;;;17.00;56.50;;;;;;4868847;29;20418;-66
2022/07/28 05:22:21;;;;;;;1.95;0.60;;;17.00;56.80;;;;;;4868036;29;20110;-65
2022/07/28 05:24:48;;;;;;;3.05;0.60;;;17.00;56.90;;;;;;4873554;29;20066;-66
2022/07/28 05:27:15;;;;;;;1.88;0.50;;;17.00;56.70;;;;;;4870844;29;20045;-67
2022/07/28 05:29:42;;;;;;;4.85;0.90;;;17.10;56.40;;;;;;4870745;29;20049;-65
2022/07/28 05:32:10;;;;;;;2.30;0.50;;;17.10;56.60;;;;;;4868059;29;20057;-64
2022/07/28 05:34:38;;;;;;;4.03;0.63;;;17.10;56.40;;;;;;4871684;29;20036;-66
2022/07/28 05:37:06;;;;;;;2.40;0.63;;;17.10;56.40;;;;;;4867519;29;20105;-65
2022/07/28 05:39:33;;;;;;;2.85;0.50;;;17.20;56.30;;;;;;4871206;29;20041;-66
2022/07/28 05:42:00;;;;;;;2.05;0.82;;;17.20;56.30;;;;;;4867260;29;20765;-66
2022/07/28 05:44:27;;;;;;;1.83;0.60;;;17.20;56.30;;;;;;4872064;29;20044;-65
2022/07/28 05:46:54;;;;;;;3.72;0.80;;;17.30;56.00;;;;;;4869922;29;20048;-66
2022/07/28 05:49:22;;;;;;;2.55;0.70;;;17.30;56.10;;;;;;4865151;29;20073;-66
2022/07/28 05:51:49;;;;;;;3.28;0.70;;;17.40;56.00;;;;;;4868519;29;20469;-67
2022/07/28 05:54:17;;;;;;;1.55;0.38;;;17.40;55.80;;;;;;4867701;29;20094;-67
2022/07/28 05:56:46;;;;;;;1.77;0.50;;;17.40;55.90;;;;;;4871424;29;20056;-67
2022/07/28 05:59:13;;;;;;;3.30;0.60;;;17.50;55.80;;;;;;4865811;29;20041;-66
2022/07/28 06:01:40;;;;;;;1.75;0.52;;;17.50;55.80;;;;;;4866426;29;20532;-67
2022/07/28 06:04:08;;;;;;;1.42;0.47;;;17.60;55.80;;;;;;4870108;29;20061;-67
2022/07/28 06:06:35;;;;;;;3.20;0.90;;;17.60;55.70;;;;;;4872461;29;20053;-67
2022/07/28 06:09:02;;;;;;;2.40;0.73;;;17.60;55.60;;;;;;4869386;29;20507;-67
2022/07/28 06:11:30;;;;;;;1.17;0.50;;;17.60;55.70;;;;;;4867196;29;20084;-66
2022/07/28 06:13:57;;;;;;;2.08;0.50;;;17.70;55.40;;;;;;4868662;29;20044;-65
2022/07/28 06:16:24;;;;;;;1.73;0.52;;;17.70;55.40;;;;;;4873155;29;20098;-66
2022/07/28 06:18:51;;;;;;;1.45;0.50;;;17.70;55.40;;;;;;4876268;29;20487;-66
2022/07/28 06:21:19;;;;;;;1.73;0.73;;;17.70;55.30;;;;;;4873370;29;20053;-67
2022/07/28 06:23:46;;;;;;;2.35;0.60;;;17.80;55.30;;;;;;4874645;29;20053;-66
2022/07/28 06:26:13;;;;;;;2.50;0.70;;;17.80;55.10;;;;;;4876256;29;20099;-66
2022/07/28 06:28:41;;;;;;;2.05;0.73;;;17.80;55.10;;;;;;4867792;29;20057;-67
2022/07/28 06:31:09;;;;;;;2.10;0.40;;;17.80;55.00;;;;;;4869764;29;20109;-66
2022/07/28 06:33:36;;;;;;;3.67;0.50;;;17.80;55.00;;;;;;4870548;29;20476;-66
2022/07/28 06:36:04;;;;;;;1.45;0.50;;;17.90;55.00;;;;;;4873551;29;20078;-67
2022/07/28 06:38:31;;;;;;;3.50;0.88;;;17.90;54.80;;;;;;4870051;29;20056;-66
2022/07/28 06:40:59;;;;;;;5.40;0.75;;;17.90;54.80;;;;;;4868557;29;20171;-66
2022/07/28 06:43:26;;;;;;;2.50;0.80;;;18.00;54.70;;;;;;4867014;29;20049;-65
2022/07/28 06:45:55;;;;;;;2.05;0.63;;;18.00;54.60;;;;;;4867498;29;20112;-67
2022/07/28 06:48:22;;;;;;;5.55;0.90;;;18.10;54.20;;;;;;4869919;29;20048;-66
2022/07/28 06:50:49;;;;;;;3.97;0.93;;;18.20;54.40;;;;;;4861129;29;20511;-64
2022/07/28 06:53:16;;;;;;;4.13;0.90;;;18.30;54.30;;;;;;4866912;29;20117;-65
2022/07/28 06:55:43;;;;;;;5.00;0.85;;;18.40;54.00;;;;;;4873378;29;20057;-66
2022/07/28 06:58:11;;;;;;;2.85;0.77;;;18.50;53.70;;;;;;4875175;29;20075;-67
2022/07/28 07:00:38;;;;;;;2.78;1.08;;;18.60;53.30;;;;;;4867346;29;20101;-66
2022/07/28 07:03:07;;;;;;;2.17;1.05;;;18.80;53.20;;;;;;4873749;29;20073;-66
2022/07/28 07:05:34;;;;;;;4.65;1.38;;;18.90;53.20;;;;;;4872668;29;20052;-66
2022/07/28 07:08:01;;;;;;;3.05;0.85;;;19.10;53.00;;;;;;4876847;29;20112;-67
2022/07/28 07:10:28;;;;;;;2.97;0.90;;;19.20;52.80;;;;;;4874078;29;20051;-66
2022/07/28 07:12:55;;;;;;;5.20;0.80;;;19.30;52.40;;;;;;4874713;29;20061;-66
2022/07/28 07:15:22;;;;;;;5.50;0.88;;;19.40;52.20;;;;;;4873968;29;20045;-66
2022/07/28 07:17:49;;;;;;;1.73;0.47;;;19.60;51.60;;;;;;4867055;29;20140;-66
2022/07/28 07:20:18;;;;;;;2.00;0.50;;;19.70;51.60;;;;;;4869674;29;20053;-66
2022/07/28 07:22:46;;;;;;;3.28;0.88;;;19.90;51.40;;;;;;4865557;29;20051;-67
2022/07/28 07:25:16;;;;;;;6.55;0.82;;;19.90;51.10;;;;;;4856888;29;20041;-67
2022/07/28 07:27:43;;;;;;;;;;;20.00;51.00;;;;;;4863632;29;20053;-68
2022/07/28 07:30:12;;;;;;;1.70;0.57;;;20.10;50.90;;;;;;4867544;29;20307;-67
2022/07/28 07:32:39;;;;;;;1.98;0.50;;;20.20;50.50;;;;;;4869859;29;20088;-67
2022/07/28 07:35:08;;;;;;;1.35;0.55;;;20.40;50.40;;;;;;4870539;29;20048;-66
2022/07/28 07:37:36;;;;;;;2.10;0.63;;;20.60;49.90;;;;;;4874423;29;20045;-66
2022/07/28 07:40:06;;;;;;;2.25;0.80;;;20.60;49.60;;;;;;4873742;29;20072;-65
2022/07/28 07:42:34;;;;;;;0.90;0.45;;;20.80;49.50;;;;;;4869110;29;20049;-65
2022/07/28 07:45:01;;;;;;;1.70;0.60;;;20.90;49.60;;;;;;4870211;29;20044;-67
2022/07/28 07:47:29;;;;;;;3.25;0.73;;;21.00;49.40;;;;;;4873706;29;20048;-67
2022/07/28 07:49:56;;;;;;;1.20;0.40;;;21.10;49.00;;;;;;4874558;29;20124;-65
2022/07/28 07:52:23;;;;;;;3.80;0.50;;;21.30;48.90;;;;;;4865545;29;20050;-64
2022/07/28 07:54:52;;;;;;;2.22;0.70;;;21.40;48.60;;;;;;4872634;29;20518;-65
2022/07/28 07:57:19;;;;;;;2.28;0.47;;;21.60;48.10;;;;;;4874563;29;20053;-67
2022/07/28 07:59:46;;;;;;;0.95;0.50;;;21.70;47.60;;;;;;4876185;29;20063;-68
2022/07/28 08:02:13;;;;;;;3.95;0.88;;;21.80;48.00;;;;;;4873186;29;20476;-62
2022/07/28 08:04:40;;;;;;;2.83;0.80;;;21.90;47.80;;;;;;4865957;29;20101;-62
2022/07/28 08:07:07;;;;;;;2.13;0.50;;;22.10;47.80;;;;;;4873489;29;20136;-62
2022/07/28 08:09:35;;;;;;;2.92;0.73;;;22.20;47.80;;;;;;4859715;29;20053;-62
2022/07/28 08:12:04;;;;;;;6.05;1.45;;;22.30;47.10;;;;;;4866762;29;20075;-62
2022/07/28 08:14:31;;;;;;;2.28;0.60;;;22.40;47.20;;;;;;4866981;29;20065;-62
2022/07/28 08:16:58;;;;;;;1.83;0.70;;;22.40;47.40;;;;;;4866956;29;20060;-62
2022/07/28 08:19:25;;;;;;;3.15;0.47;;;22.60;47.50;;;;;;4857894;29;20045;-60
2022/07/28 08:21:52;;;;;;;1.55;0.57;;;22.80;46.40;;;;;;4868864;29;20056;-62
2022/07/28 08:24:19;;;;;;;5.40;1.20;;;23.00;46.30;;;;;;4865143;29;20466;-62
2022/07/28 08:26:46;;;;;;;3.28;0.63;;;23.00;46.40;;;;;;4863679;29;20063;-62
2022/07/28 08:29:14;;;;;;;2.47;0.50;;;23.10;46.30;;;;;;4867832;29;20105;-62
2022/07/28 08:31:42;;;;;;;1.77;0.60;;;23.20;46.40;;;;;;4869202;29;20049;-62
2022/07/28 08:34:08;;;;;;;1.98;0.57;;;23.30;46.60;;;;;;4868261;29;20161;-62
2022/07/28 08:36:35;;;;;;;1.65;0.80;;;23.50;46.20;;;;;;4861811;29;20571;-61
2022/07/28 08:39:04;;;;;;;1.65;0.73;;;23.60;46.10;;;;;;4870586;29;20125;-62
2022/07/28 08:41:36;;;;;;;2.03;0.50;;;23.70;45.80;;;;;;4870541;29;20139;-62
2022/07/28 08:44:05;;;;;;;1.10;0.47;;;23.90;45.20;;;;;;4871083;29;20053;-62
2022/07/28 08:46:36;;;;;;;2.88;0.88;;;24.00;45.30;;;;;;4876259;29;20152;-62
2022/07/28 08:49:07;;;;;;;3.47;0.70;;;24.10;45.20;;;;;;4867294;29;20192;-63
2022/07/28 08:51:35;;;;;;;3.97;0.60;;;24.10;45.20;;;;;;4867348;29;20700;-63
2022/07/28 08:54:03;;;;;;;2.70;0.77;;;24.30;44.90;;;;;;4871668;29;20551;-62
2022/07/28 08:56:31;;;;;;;3.33;0.68;;;24.40;44.60;;;;;;4873639;29;20079;-64
2022/07/28 08:58:58;;;;;;;2.73;0.70;;;24.50;44.60;;;;;;4869881;29;20093;-64
2022/07/28 09:01:26;;;;;;;2.95;0.85;;;24.60;44.50;;;;;;4872982;29;20033;-63
2022/07/28 09:03:55;;;;;;;3.45;0.70;;;24.70;44.40;;;;;;4871568;29;20068;-62
2022/07/28 09:06:22;;;;;;;2.10;0.60;;;24.80;44.00;;;;;;4870249;29;20041;-64
2022/07/28 09:08:50;;;;;;;1.42;0.50;;;25.00;43.90;;;;;;4874129;29;20109;-64
2022/07/28 09:11:17;;;;;;;2.78;0.70;;;25.00;43.80;;;;;;4870170;29;20176;-63
2022/07/28 09:13:44;;;;;;;1.63;0.60;;;25.10;43.50;;;;;;4870056;29;20049;-63
2022/07/28 09:16:14;;;;;;;3.83;0.80;;;25.20;43.10;;;;;;4871204;29;20080;-62
2022/07/28 09:18:41;;;;;;;2.53;0.73;;;25.30;43.10;;;;;;4872408;29;20045;-62
2022/07/28 09:21:14;;;;;;;3.38;0.70;;;25.30;43.10;;;;;;4864230;29;20049;-61
2022/07/28 09:23:46;;;;;;;2.95;0.70;;;25.50;42.80;;;;;;4871325;29;20052;-62
2022/07/28 09:26:14;;;;;;;5.28;0.90;;;25.50;42.70;;;;;;4867830;29;20144;-61
2022/07/28 09:28:48;;;;;;;3.92;0.70;;;25.60;42.40;;;;;;4866978;29;20053;-63
2022/07/28 09:31:16;;;;;;;4.53;0.68;;;25.70;42.30;;;;;;4871056;29;20407;-61
2022/07/28 09:33:54;;;;;;;3.38;0.70;;;25.70;42.30;;;;;;4874770;29;20049;-62
2022/07/28 09:36:23;;;;;;;3.90;0.70;;;25.80;42.30;;;;;;4871556;29;20128;-61
2022/07/28 09:38:50;;;;;;;3.78;0.82;;;25.90;42.60;;;;;;4871115;29;20086;-60
2022/07/28 09:41:20;;;;;;;5.03;1.10;;;25.90;42.50;;;;;;4865322;29;20468;-61
2022/07/28 09:43:49;;;;;;;3.85;1.05;;;26.10;41.90;;;;;;4861891;29;20063;-62
2022/07/28 09:46:18;;;;;;;4.85;1.38;;;26.10;41.90;;;;;;4868452;29;20059;-62
2022/07/28 09:48:56;;;;;;;6.78;2.42;;;26.20;41.60;;;;;;4872224;29;20087;-61
2022/07/28 09:51:27;;;;;;;5.22;1.80;;;26.30;41.60;;;;;;4871486;29;20041;-61
2022/07/28 09:54:07;;;;;;;4.75;1.13;;;26.40;40.80;;;;;;4865991;29;20052;-62
2022/07/28 09:56:34;;;;;;;8.48;3.08;;;26.50;40.90;;;;;;4870579;29;20068;-63
2022/07/28 09:59:02;;;;;;;6.80;2.00;;;26.60;40.70;;;;;;4870347;29;20052;-62
2022/07/28 10:01:29;;;;;;;6.63;2.78;;;26.60;40.50;;;;;;4867867;29;20049;-61
2022/07/28 10:03:58;;;;;;;6.03;2.53;;;26.70;40.10;;;;;;4870381;29;20120;-60
2022/07/28 10:06:28;;;;;;;6.10;2.90;;;26.70;40.30;;;;;;4875363;29;20053;-61
2022/07/28 10:08:56;;;;;;;4.45;1.70;;;26.80;39.80;;;;;;4875227;29;20061;-62
2022/07/28 10:11:26;;;;;;;3.47;1.27;;;26.90;39.60;;;;;;4863205;29;20495;-65
2022/07/28 10:13:59;;;;;;;6.78;1.45;;;26.90;39.50;;;;;;4863668;29;20080;-62
2022/07/28 10:16:28;;;;;;;4.65;1.40;;;27.00;39.60;;;;;;4869564;29;20057;-62
2022/07/28 10:18:56;;;;;;;6.22;1.90;;;26.90;39.60;;;;;;4871139;29;20117;-62
2022/07/28 10:21:24;;;;;;;4.95;1.52;;;27.00;39.60;;;;;;4862918;29;20049;-63
2022/07/28 10:23:54;;;;;;;3.17;1.50;;;27.00;39.50;;;;;;4862118;29;20063;-65
2022/07/28 10:26:25;;;;;;;4.45;1.13;;;27.10;39.30;;;;;;4863036;29;20157;-62
2022/07/28 10:28:54;;;;;;;3.85;1.42;;;27.10;39.10;;;;;;4862307;29;20079;-64
2022/07/28 10:31:38;;;;;;;2.28;0.95;;;27.10;38.90;;;;;;4863273;29;20045;-63
2022/07/28 10:34:09;;;;;;;2.10;0.98;;;27.20;38.80;;;;;;4866572;29;20140;-62
2022/07/28 10:36:37;;;;;;;2.58;1.20;;;27.20;38.60;;;;;;4864781;29;20060;-63
2022/07/28 10:39:15;;;;;;;6.17;1.27;;;27.20;38.50;;;;;;4862084;29;20045;-62
2022/07/28 10:41:43;;;;;;;3.38;1.48;;;27.30;38.20;;;;;;4864454;29;20584;-64
2022/07/28 10:44:13;;;;;;;5.55;1.92;;;27.30;38.30;;;;;;4863238;29;20049;-62
2022/07/28 10:46:44;;;;;;;3.80;1.40;;;27.40;38.10;;;;;;4866919;29;20045;-64
2022/07/28 10:49:13;;;;;;;4.70;1.65;;;27.50;37.80;;;;;;4865148;29;20116;-64
2022/07/28 10:51:42;;;;;;;4.93;1.60;;;27.50;37.20;;;;;;4861554;29;20056;-62
2022/07/28 10:54:19;;;;;;;4.32;1.50;;;27.60;37.30;;;;;;4869021;29;20041;-63
2022/07/28 10:56:50;;;;;;;3.78;1.60;;;27.70;36.70;;;;;;4868179;29;20061;-62
2022/07/28 10:59:44;;;;;;;4.88;1.63;;;27.70;37.00;;;;;;4865735;29;20220;-64
2022/07/28 11:02:42;;;;;;;3.38;1.35;;;27.80;37.00;;;;;;4866430;29;20716;-63
2022/07/28 11:05:25;;;;;;;2.22;1.05;;;27.80;36.70;;;;;;4866050;29;20093;-63
2022/07/28 11:07:53;;;;;;;5.88;2.25;;;27.80;36.70;;;;;;4871366;29;20049;-64
2022/07/28 11:10:22;;;;;;;5.47;2.67;;;27.90;36.50;;;;;;4867581;29;20148;-64
2022/07/28 11:12:51;;;;;;;6.70;2.72;;;28.00;36.60;;;;;;4866980;29;20083;-62
2022/07/28 11:15:36;;;;;;;7.60;2.35;;;28.00;36.30;;;;;;4869381;29;20041;-62
2022/07/28 11:18:08;;;;;;;3.90;1.67;;;28.10;36.50;;;;;;4863895;29;20064;-63
2022/07/28 11:21:08;;;;;;;4.93;1.98;;;28.10;36.20;;;;;;4866987;29;20066;-62
2022/07/28 11:23:53;;;;;;;3.20;1.65;;;28.10;36.10;;;;;;4811797;29;20160;-62
2022/07/28 11:26:36;;;;;;;7.82;3.45;;;28.10;36.20;;;;;;4858360;29;20057;-64
2022/07/28 11:29:20;;;;;;;9.73;4.55;;;28.30;35.90;;;;;;4869641;29;20524;-63
2022/07/28 11:32:01;;;;;;;9.88;4.80;;;28.40;35.70;;;;;;4864754;29;20061;-63
2022/07/28 11:35:18;;;;;;;8.45;3.70;;;28.60;35.60;;;;;;4877449;29;20051;-63
2022/07/28 11:38:10;;;;;;;11.43;5.97;;;28.80;35.60;;;;;;4864063;29;20041;-63
2022/07/28 11:40:40;;;;;;;10.43;4.30;;;28.90;35.40;;;;;;4860032;29;20117;-63
2022/07/28 11:43:38;;;;;;;7.07;3.35;;;28.80;35.40;;;;;;4868628;29;20183;-63
2022/07/28 11:46:36;;;;;;;6.32;2.72;;;28.80;35.40;;;;;;4866077;29;20053;-64
2022/07/28 11:49:24;;;;;;;6.72;2.90;;;28.80;35.30;;;;;;4865928;29;20075;-63
2022/07/28 11:52:11;;;;;;;9.80;4.88;;;28.80;35.00;;;;;;4868982;29;20057;-64
2022/07/28 11:54:39;;;;;;;12.38;7.05;;;29.00;34.60;;;;;;4864048;29;20045;-63
2022/07/28 11:57:08;;;;;;;8.00;4.38;;;29.10;34.60;;;;;;4867404;29;20061;-64
2022/07/28 11:59:52;;;;;;;7.70;3.63;;;29.00;34.30;;;;;;4868106;29;20055;-63
2022/07/28 12:02:21;;;;;;;7.97;3.60;;;29.00;34.30;;;;;;4863452;29;20048;-62
2022/07/28 12:05:00;;;;;;;5.72;2.40;;;28.90;34.50;;;;;;4868396;29;20053;-61
2022/07/28 12:07:33;;;;;;;4.10;1.80;;;28.90;34.80;;;;;;4870966;29;20065;-63
2022/07/28 12:10:01;;;;;;;8.00;2.67;;;28.80;34.70;;;;;;4866827;29;20069;-62
2022/07/28 12:12:28;;;;;;;7.30;3.60;;;28.80;34.50;;;;;;4865038;29;20507;-63
2022/07/28 12:14:57;;;;;;;12.43;3.53;;;28.90;34.50;;;;;;4867187;29;20044;-62
2022/07/28 12:17:33;;;;;;;11.90;4.60;;;29.00;34.60;;;;;;4870753;29;20053;-63
2022/07/28 12:20:07;;;;;;;9.32;4.65;;;29.10;34.40;;;;;;4864645;29;20049;-63
2022/07/28 12:22:34;;;;;;;10.13;4.55;;;29.20;34.40;;;;;;4859791;29;20056;-62
2022/07/28 12:25:01;;;;;;;13.20;7.20;;;29.30;34.10;;;;;;4862090;29;20052;-61
2022/07/28 12:27:29;;;;;;;11.35;6.40;;;29.40;33.90;;;;;;4868359;29;20444;-61
2022/07/28 12:29:59;;;;;;;12.52;5.22;;;29.50;33.90;;;;;;4866403;29;20684;-63
2022/07/28 12:32:33;;;;;;;10.57;4.97;;;29.40;33.80;;;;;;4865914;29;20049;-62
2022/07/28 12:35:01;;;;;;;7.97;3.50;;;29.40;33.70;;;;;;4865104;29;20495;-63
2022/07/28 12:37:28;;;;;;;6.68;2.97;;;29.30;33.50;;;;;;4876249;29;20140;-63
2022/07/28 12:39:56;;;;;;;10.07;2.58;;;29.20;33.30;;;;;;4875299;29;20113;-63
2022/07/28 12:42:24;;;;;;;4.85;2.50;;;29.10;33.10;;;;;;4863042;29;20069;-62
2022/07/28 12:44:53;;;;;;;4.37;1.57;;;29.00;33.10;;;;;;4859409;29;20069;-63
2022/07/28 12:47:27;;;;;;;5.75;2.17;;;28.90;33.30;;;;;;4857905;29;20049;-64
2022/07/28 12:50:13;;;;;;;6.10;2.33;;;28.90;33.50;;;;;;4867019;29;20140;-63
2022/07/28 12:52:41;;;;;;;4.97;2.13;;;28.80;33.80;;;;;;4862131;29;20215;-63
2022/07/28 12:55:22;;;;;;;6.03;2.58;;;28.80;33.60;;;;;;4866207;29;20141;-63
2022/07/28 12:57:51;;;;;;;7.35;2.45;;;28.70;33.70;;;;;;4865209;29;20136;-63
2022/07/28 13:00:21;;;;;;;5.65;2.40;;;28.70;33.90;;;;;;4863650;29;21040;-63
2022/07/28 13:02:52;;;;;;;5.40;1.80;;;28.70;34.60;;;;;;4864423;29;20049;-62
2022/07/28 13:06:01;;;;;;;6.40;2.13;;;28.70;34.50;;;;;;4867077;29;20049;-63